Forside
METAR-TAF:

METAR-TAF

Lufthavne :

Ottumwa Industrial Airport

Ottumwa, Iowa, USA

Breddekreds: 41-06-24N, længdekreds: 092-26-53W, højde: 258 m

Aktuelle vejr

Denne rapport blev lavet for 55 minutter siden, kl. 12:53 UTC
Vind 10 kt fra nordøst
Temperatur 9°C
Fugtighed 81%
Tryk 1026 hPa
Sigt: 14.5 km
skyfri

METAR: KOTM 111253Z AUTO 05010KT 9SM CLR 09/06 A3031 RMK AO2 SLP265 T00890056

Tid: 08:48 (13:48 UTC)

Vejrudsigter

Denne rapport blev lavet for 2 timer og 25 minutter siden, kl. 11:23 UTC
Foreløbig gælder fra 11 på 12 UTC til 12 på 12 UTC
Vind 9 kt fra østnordøst
Sigt: 10 km
Spredte skyer i en højde af 20000 ft

TAF: KOTM 111123Z 1112/1212 06009KT P6SM SCT200

Vejrobservationer og prognoser fra mere end 4000 lufthavne (METAR og TAF).

De gule og røde prikker repræsenterer de meteorologiske stationer.

Flyt musen over at se navnet på stationen.

Så klik over at se vejr observationer og prognoser.

At skifte det kort: Klik på de grønne knapper med et sort kors for at zoome ind; på den grønne knap med en bindestreg for at zoome ud; eller på de grønne pile for tilstødende kort.


METAR-TAF: